Share

Stoneham, CO (80754)

Fort Morgan (KFMM) Elev 4570 ft | 40.33 °N, 103.80 °W | Change Station

Current weather conditions updated 34 minutes ago

Clear
Clear
45 °F
Feels Like 42 °F
N
5
Wind Variable Wind from NW
Sunrise 6:07 AM
Sunset 7:40 PM
Moon Waning Gibbous

Today is forecast to be Cooler than yesterday.

Pressure 30.29 in
Visibility 10.0 miles
Clouds Clear
Windchill 42 °F
Dew Point 30 °F
Humidity 56%
Rainfall 0.00 in
Snow Depth Not available.
UV 1 out of 16
Pollen 10.60 out of 12
Air Quality Not available.
Flu Activity Sporadic
METAR KFMM 211315Z AUTO 31004KT 10SM CLR 07/M01 A3029 RMK AO2 T00711012

More Conditions Fewer Conditions

Pressure 30.29 in
Visibility 10.0 miles
Clouds Clear
Windchill 42 °F
Dew Point 30 °F
Humidity 56%
Rainfall 0.00 in
Snow Depth Not available.
UV 1 out of 16
Pollen 10.60 out of 12
Air Quality Not available.
Flu Activity Sporadic
METAR KFMM 211315Z AUTO 31004KT 10SM CLR 07/M01 A3029 RMK AO2 T00711012

More Conditions Fewer Conditions

10-Day Weather Forecast

Almanac

Astronomy

Apr. 21, 2014 Rise Set
Actual Time 6:07 AM MDT 7:40 PM MDT
Civil Twilight 5:38 AM MDT 8:09 PM MDT
Nautical Twilight 5:03 AM MDT 8:43 PM MDT
Astronomical Twilight 4:26 AM MDT 9:20 PM MDT
Moon 1:12 AM MDT 11:36 AM MDT
Length of Visible Light 14h 30m
Length of Day
13h 33m
Tomorrow will be 2m 29s longer.
Waning Gibbous, 59% of the Moon is Illuminated
Today
Waning Gibbous
Apr 22
Last Quarter
Apr 29
New
May 6
First Quarter
May 14
Full

Today's Extremes

State Highs State Lows

Community

  • Snowy Robin
    Snowy Robin
  • Sun Pillar and Geese
    Sun Pillar and Geese
  • Showers on the Way
    Showers on the Way
  • Easter Morning Fog
    Easter Morning Fog
  • Easter Dance
    Easter Dance

WunderPhotos

Upload Photos

1,703,621 photos uploaded!

Nearby

Snow Depth

Station Depth Elevation
Copeland Lake 0 in 8600 ft
Wild Basin 52 in 9560 ft
Bear Lake 57 in 9500 ft
Niwot 49 in 9910 ft
University Camp 74 in 10300 ft

Coastal Water Temperatures

Place Temperature
No Stations Reporting

Earthquake Activity

City Distance Mag. Time & Date
No recent earthquake activity has been reported nearby.
Minimum magnitude displayed is 2.5.

Nearby Weather Stations

Station Location Temp. Windchill Dew Point Humidity Wind Precip. Elev Updated Type
Sterling, CO 49.5 °F 50 °F 30 °F 46% North  at  3.0 mph 0.00 in / hr 3937 ft 7:49 AM MDT Rapid Fire

Show More Stations Show Fewer Stations

What do you think?

We're not finished. Please let us know what you like, what you don't like, and what you are still missing.